sensor_id;sensor_type;location;lat;lon;timestamp;pressure;altitude;pressure_sealevel;temperature;humidity
25869;BME280;13688;53.154;18.136;2023-01-27T00:04:21;101430.92;;;-1.64;100.00
25869;BME280;13688;53.154;18.136;2023-01-27T00:09:44;101443.18;;;-1.60;100.00
25869;BME280;13688;53.154;18.136;2023-01-27T00:15:06;101441.38;;;-1.58;100.00
25869;BME280;13688;53.154;18.136;2023-01-27T00:20:30;101442.36;;;-1.65;100.00
25869;BME280;13688;53.154;18.136;2023-01-27T00:26:04;101436.25;;;-1.67;100.00
25869;BME280;13688;53.154;18.136;2023-01-27T00:31:28;101443.27;;;-1.66;100.00
25869;BME280;13688;53.154;18.136;2023-01-27T00:37:08;101452.89;;;-1.62;100.00
25869;BME280;13688;53.154;18.136;2023-01-27T00:42:30;101452.73;;;-1.55;100.00
25869;BME280;13688;53.154;18.136;2023-01-27T00:47:54;101451.88;;;-1.54;100.00
25869;BME280;13688;53.154;18.136;2023-01-27T00:53:16;101445.64;;;-1.50;100.00
25869;BME280;13688;53.154;18.136;2023-01-27T00:58:38;101458.85;;;-1.51;100.00
25869;BME280;13688;53.154;18.136;2023-01-27T01:04:02;101452.73;;;-1.55;100.00
25869;BME280;13688;53.154;18.136;2023-01-27T01:09:25;101459.90;;;-1.61;100.00
25869;BME280;13688;53.154;18.136;2023-01-27T01:14:47;101463.41;;;-1.61;100.00
25869;BME280;13688;53.154;18.136;2023-01-27T01:20:10;101466.88;;;-1.59;100.00
25869;BME280;13688;53.154;18.136;2023-01-27T01:25:33;101462.50;;;-1.60;100.00
25869;BME280;13688;53.154;18.136;2023-01-27T01:30:55;101451.12;;;-1.62;100.00
25869;BME280;13688;53.154;18.136;2023-01-27T01:36:25;101450.22;;;-1.61;100.00
25869;BME280;13688;53.154;18.136;2023-01-27T01:41:49;101456.33;;;-1.59;100.00
25869;BME280;13688;53.154;18.136;2023-01-27T01:47:14;101444.91;;;-1.59;100.00
25869;BME280;13688;53.154;18.136;2023-01-27T01:52:37;101455.41;;;-1.56;100.00
25869;BME280;13688;53.154;18.136;2023-01-27T01:58:00;101455.38;;;-1.53;100.00
25869;BME280;13688;53.154;18.136;2023-01-27T02:03:24;101464.09;;;-1.50;100.00
25869;BME280;13688;53.154;18.136;2023-01-27T02:08:48;101459.63;;;-1.45;100.00
25869;BME280;13688;53.154;18.136;2023-01-27T02:20:30;101457.02;;;-1.48;100.00
25869;BME280;13688;53.154;18.136;2023-01-27T02:25:57;101460.53;;;-1.47;100.00
25869;BME280;13688;53.154;18.136;2023-01-27T02:31:38;101465.77;;;-1.46;100.00
25869;BME280;13688;53.154;18.136;2023-01-27T02:37:14;101457.83;;;-1.42;100.00
25869;BME280;13688;53.154;18.136;2023-01-27T02:42:37;101456.94;;;-1.41;100.00
25869;BME280;13688;53.154;18.136;2023-01-27T02:48:12;101465.78;;;-1.44;100.00
25869;BME280;13688;53.154;18.136;2023-01-27T02:53:37;101463.14;;;-1.46;100.00
25869;BME280;13688;53.154;18.136;2023-01-27T02:59:01;101462.27;;;-1.45;100.00
25869;BME280;13688;53.154;18.136;2023-01-27T03:05:04;101458.73;;;-1.43;100.00
25869;BME280;13688;53.154;18.136;2023-01-27T03:10:27;101468.41;;;-1.44;100.00
25869;BME280;13688;53.154;18.136;2023-01-27T03:15:49;101464.91;;;-1.46;100.00
25869;BME280;13688;53.154;18.136;2023-01-27T03:21:39;101472.82;;;-1.45;100.00
25869;BME280;13688;53.154;18.136;2023-01-27T03:27:43;101475.40;;;-1.41;100.00
25869;BME280;13688;53.154;18.136;2023-01-27T03:33:14;101477.08;;;-1.37;100.00
25869;BME280;13688;53.154;18.136;2023-01-27T03:38:37;101463.95;;;-1.40;100.00
25869;BME280;13688;53.154;18.136;2023-01-27T03:44:16;101477.14;;;-1.40;100.00
25869;BME280;13688;53.154;18.136;2023-01-27T03:49:56;101487.59;;;-1.34;100.00
25869;BME280;13688;53.154;18.136;2023-01-27T03:55:20;101482.27;;;-1.31;100.00
25869;BME280;13688;53.154;18.136;2023-01-27T04:00:42;101476.05;;;-1.29;100.00
25869;BME280;13688;53.154;18.136;2023-01-27T04:06:11;101489.22;;;-1.27;100.00
25869;BME280;13688;53.154;18.136;2023-01-27T04:11:58;101490.11;;;-1.28;100.00
25869;BME280;13688;53.154;18.136;2023-01-27T04:17:36;101484.03;;;-1.32;100.00
25869;BME280;13688;53.154;18.136;2023-01-27T04:23:16;101501.54;;;-1.28;100.00
25869;BME280;13688;53.154;18.136;2023-01-27T04:28:44;101509.45;;;-1.28;100.00
25869;BME280;13688;53.154;18.136;2023-01-27T04:34:07;101497.22;;;-1.32;100.00
25869;BME280;13688;53.154;18.136;2023-01-27T04:39:41;101512.06;;;-1.25;100.00
25869;BME280;13688;53.154;18.136;2023-01-27T04:45:45;101511.07;;;-1.19;100.00
25869;BME280;13688;53.154;18.136;2023-01-27T04:51:16;101518.83;;;-1.10;100.00
25869;BME280;13688;53.154;18.136;2023-01-27T04:56:41;101525.11;;;-1.16;100.00
25869;BME280;13688;53.154;18.136;2023-01-27T05:02:12;101532.99;;;-1.14;100.00
25869;BME280;13688;53.154;18.136;2023-01-27T05:07:36;101535.63;;;-1.14;100.00
25869;BME280;13688;53.154;18.136;2023-01-27T05:13:16;101542.59;;;-1.10;100.00
25869;BME280;13688;53.154;18.136;2023-01-27T05:18:38;101537.30;;;-1.10;100.00
25869;BME280;13688;53.154;18.136;2023-01-27T05:24:02;101543.42;;;-1.08;100.00
25869;BME280;13688;53.154;18.136;2023-01-27T05:29:26;101543.45;;;-1.09;100.00
25869;BME280;13688;53.154;18.136;2023-01-27T05:34:49;101536.44;;;-1.10;100.00
25869;BME280;13688;53.154;18.136;2023-01-27T05:40:15;101543.52;;;-1.12;100.00
25869;BME280;13688;53.154;18.136;2023-01-27T05:45:47;101550.53;;;-1.11;100.00
25869;BME280;13688;53.154;18.136;2023-01-27T05:51:12;101560.25;;;-1.13;100.00
25869;BME280;13688;53.154;18.136;2023-01-27T05:56:36;101553.23;;;-1.16;100.00
25869;BME280;13688;53.154;18.136;2023-01-27T06:01:58;101566.42;;;-1.16;100.00
25869;BME280;13688;53.154;18.136;2023-01-27T06:07:22;101573.47;;;-1.17;100.00
25869;BME280;13688;53.154;18.136;2023-01-27T06:12:45;101574.40;;;-1.19;100.00
25869;BME280;13688;53.154;18.136;2023-01-27T06:18:09;101579.64;;;-1.18;100.00
25869;BME280;13688;53.154;18.136;2023-01-27T06:23:32;101576.16;;;-1.20;100.00
25869;BME280;13688;53.154;18.136;2023-01-27T06:28:55;101585.88;;;-1.22;100.00
25869;BME280;13688;53.154;18.136;2023-01-27T06:34:18;101589.45;;;-1.24;100.00
25869;BME280;13688;53.154;18.136;2023-01-27T06:39:40;101589.44;;;-1.26;100.00
25869;BME280;13688;53.154;18.136;2023-01-27T06:45:02;101599.13;;;-1.25;100.00
25869;BME280;13688;53.154;18.136;2023-01-27T06:50:26;101597.36;;;-1.26;100.00
25869;BME280;13688;53.154;18.136;2023-01-27T06:55:53;101614.06;;;-1.24;100.00
25869;BME280;13688;53.154;18.136;2023-01-27T07:01:13;101621.98;;;-1.24;100.00
25869;BME280;13688;53.154;18.136;2023-01-27T07:12:42;101632.63;;;-1.31;100.00
25869;BME280;13688;53.154;18.136;2023-01-27T07:18:05;101640.58;;;-1.33;100.00
25869;BME280;13688;53.154;18.136;2023-01-27T07:23:28;101643.31;;;-1.40;100.00
25869;BME280;13688;53.154;18.136;2023-01-27T07:28:50;101650.36;;;-1.41;100.00
25869;BME280;13688;53.154;18.136;2023-01-27T07:34:13;101653.86;;;-1.40;100.00
25869;BME280;13688;53.154;18.136;2023-01-27T07:39:36;101655.55;;;-1.36;100.00
25869;BME280;13688;53.154;18.136;2023-01-27T07:44:59;101659.94;;;-1.35;100.00
25869;BME280;13688;53.154;18.136;2023-01-27T07:50:21;101662.53;;;-1.31;100.00
25869;BME280;13688;53.154;18.136;2023-01-27T07:55:44;101665.16;;;-1.31;100.00
25869;BME280;13688;53.154;18.136;2023-01-27T08:01:09;101674.77;;;-1.27;100.00
25869;BME280;13688;53.154;18.136;2023-01-27T08:06:33;101681.74;;;-1.21;100.00
25869;BME280;13688;53.154;18.136;2023-01-27T08:11:55;101687.77;;;-1.11;100.00
25869;BME280;13688;53.154;18.136;2023-01-27T08:17:18;101684.09;;;-1.01;100.00
25869;BME280;13688;53.154;18.136;2023-01-27T08:22:40;101694.52;;;-0.92;100.00
25869;BME280;13688;53.154;18.136;2023-01-27T08:28:03;101693.52;;;-0.83;100.00
25869;BME280;13688;53.154;18.136;2023-01-27T08:33:27;101696.02;;;-0.74;100.00
25869;BME280;13688;53.154;18.136;2023-01-27T08:38:50;101711.88;;;-0.77;100.00
25869;BME280;13688;53.154;18.136;2023-01-27T08:44:16;101713.55;;;-0.70;100.00
25869;BME280;13688;53.154;18.136;2023-01-27T08:49:39;101724.92;;;-0.65;100.00
25869;BME280;13688;53.154;18.136;2023-01-27T08:55:03;101713.43;;;-0.63;100.00
25869;BME280;13688;53.154;18.136;2023-01-27T09:00:26;101731.86;;;-0.60;100.00
25869;BME280;13688;53.154;18.136;2023-01-27T09:05:49;101737.14;;;-0.60;100.00
25869;BME280;13688;53.154;18.136;2023-01-27T09:11:16;101742.39;;;-0.58;100.00
25869;BME280;13688;53.154;18.136;2023-01-27T09:16:38;101744.03;;;-0.48;100.00
25869;BME280;13688;53.154;18.136;2023-01-27T09:22:01;101744.95;;;-0.52;100.00
25869;BME280;13688;53.154;18.136;2023-01-27T09:27:23;101746.70;;;-0.51;100.00
25869;BME280;13688;53.154;18.136;2023-01-27T09:32:48;101754.56;;;-0.46;100.00
25869;BME280;13688;53.154;18.136;2023-01-27T09:38:15;101745.77;;;-0.47;100.00
25869;BME280;13688;53.154;18.136;2023-01-27T09:55:15;101747.00;;;-0.15;100.00
25869;BME280;13688;53.154;18.136;2023-01-27T10:00:56;101753.88;;;-0.05;100.00
25869;BME280;13688;53.154;18.136;2023-01-27T10:23:43;101755.26;;;0.16;100.00
25869;BME280;13688;53.154;18.136;2023-01-27T10:29:26;101757.00;;;0.17;100.00
25869;BME280;13688;53.154;18.136;2023-01-27T10:35:08;101758.50;;;0.32;100.00
25869;BME280;13688;53.154;18.136;2023-01-27T10:40:51;101760.14;;;0.37;100.00
25869;BME280;13688;53.154;18.136;2023-01-27T10:52:04;101758.19;;;0.48;97.91
25869;BME280;13688;53.154;18.136;2023-01-27T10:58:10;101758.98;;;0.52;96.54
25869;BME280;13688;53.154;18.136;2023-01-27T11:03:38;101764.56;;;0.37;96.07
25869;BME280;13688;53.154;18.136;2023-01-27T11:14:47;101767.27;;;0.34;95.79
25869;BME280;13688;53.154;18.136;2023-01-27T11:20:59;101762.22;;;0.21;96.10
25869;BME280;13688;53.154;18.136;2023-01-27T11:26:01;101768.25;;;0.28;96.97
25869;BME280;13688;53.154;18.136;2023-01-27T11:37:38;101765.26;;;0.46;98.69
25869;BME280;13688;53.154;18.136;2023-01-27T11:43:16;101765.91;;;0.57;100.00
25869;BME280;13688;53.154;18.136;2023-01-27T11:48:46;101766.13;;;0.48;99.47
25869;BME280;13688;53.154;18.136;2023-01-27T11:54:21;101768.81;;;0.45;99.84
25869;BME280;13688;53.154;18.136;2023-01-27T11:59:44;101772.33;;;0.46;100.00
25869;BME280;13688;53.154;18.136;2023-01-27T12:05:16;101772.47;;;0.38;100.00
25869;BME280;13688;53.154;18.136;2023-01-27T12:10:45;101768.14;;;0.34;100.00
25869;BME280;13688;53.154;18.136;2023-01-27T12:16:08;101773.67;;;0.22;100.00
25869;BME280;13688;53.154;18.136;2023-01-27T12:21:45;101773.00;;;0.11;100.00
25869;BME280;13688;53.154;18.136;2023-01-27T12:27:12;101773.90;;;0.10;100.00
25869;BME280;13688;53.154;18.136;2023-01-27T12:32:40;101770.38;;;0.08;100.00
25869;BME280;13688;53.154;18.136;2023-01-27T12:38:23;101761.58;;;0.07;100.00
25869;BME280;13688;53.154;18.136;2023-01-27T12:44:14;101757.20;;;0.06;100.00
25869;BME280;13688;53.154;18.136;2023-01-27T12:49:38;101759.84;;;0.06;100.00
25869;BME280;13688;53.154;18.136;2023-01-27T12:55:01;101756.27;;;0.09;100.00
25869;BME280;13688;53.154;18.136;2023-01-27T13:00:25;101763.22;;;0.14;100.00
25869;BME280;13688;53.154;18.136;2023-01-27T13:05:51;101769.32;;;0.18;100.00
25869;BME280;13688;53.154;18.136;2023-01-27T13:11:15;101769.41;;;0.13;100.00
25869;BME280;13688;53.154;18.136;2023-01-27T13:16:48;101764.94;;;0.17;100.00
25869;BME280;13688;53.154;18.136;2023-01-27T13:22:14;101777.25;;;0.19;100.00
25869;BME280;13688;53.154;18.136;2023-01-27T13:27:37;101783.41;;;0.20;100.00
25869;BME280;13688;53.154;18.136;2023-01-27T13:33:06;101786.02;;;0.21;100.00
25869;BME280;13688;53.154;18.136;2023-01-27T13:38:32;101787.80;;;0.21;100.00
25869;BME280;13688;53.154;18.136;2023-01-27T13:44:05;101793.95;;;0.21;98.46
25869;BME280;13688;53.154;18.136;2023-01-27T13:54:58;101793.05;;;0.22;94.62
25869;BME280;13688;53.154;18.136;2023-01-27T14:00:45;101811.53;;;0.24;93.17
25869;BME280;13688;53.154;18.136;2023-01-27T14:12:08;101810.11;;;0.05;90.82
25869;BME280;13688;53.154;18.136;2023-01-27T14:17:54;101815.40;;;0.05;90.87
25869;BME280;13688;53.154;18.136;2023-01-27T14:23:38;101821.73;;;-0.06;90.84
25869;BME280;13688;53.154;18.136;2023-01-27T14:35:30;101818.40;;;-0.17;88.62
25869;BME280;13688;53.154;18.136;2023-01-27T14:58:42;101860.39;;;-0.59;85.64
25869;BME280;13688;53.154;18.136;2023-01-27T15:10:30;101862.30;;;-0.70;85.72
25869;BME280;13688;53.154;18.136;2023-01-27T15:16:11;101864.15;;;-0.75;85.33
25869;BME280;13688;53.154;18.136;2023-01-27T15:22:26;101878.23;;;-0.74;84.77
25869;BME280;13688;53.154;18.136;2023-01-27T15:27:58;101869.67;;;-0.95;83.93
25869;BME280;13688;53.154;18.136;2023-01-27T15:39:18;101875.06;;;-1.04;83.38
25869;BME280;13688;53.154;18.136;2023-01-27T15:45:24;101875.95;;;-1.06;83.48
25869;BME280;13688;53.154;18.136;2023-01-27T15:50:22;101879.48;;;-1.07;83.67
25869;BME280;13688;53.154;18.136;2023-01-27T15:55:48;101890.04;;;-1.07;83.81
25869;BME280;13688;53.154;18.136;2023-01-27T16:01:25;101889.19;;;-1.09;83.84
25869;BME280;13688;53.154;18.136;2023-01-27T16:06:56;101895.38;;;-1.12;83.66
25869;BME280;13688;53.154;18.136;2023-01-27T16:12:40;101898.05;;;-1.17;83.29
25869;BME280;13688;53.154;18.136;2023-01-27T16:34:54;101906.08;;;-1.27;81.06
25869;BME280;13688;53.154;18.136;2023-01-27T16:40:22;101905.21;;;-1.28;81.19
25869;BME280;13688;53.154;18.136;2023-01-27T16:45:52;101911.37;;;-1.29;81.51
25869;BME280;13688;53.154;18.136;2023-01-27T16:51:25;101907.05;;;-1.36;81.95
25869;BME280;13688;53.154;18.136;2023-01-27T16:56:49;101917.64;;;-1.39;82.38
25869;BME280;13688;53.154;18.136;2023-01-27T17:02:21;101908.03;;;-1.45;82.55
25869;BME280;13688;53.154;18.136;2023-01-27T17:13:47;101922.13;;;-1.49;82.70
25869;BME280;13688;53.154;18.136;2023-01-27T17:19:26;101932.66;;;-1.47;82.71
25869;BME280;13688;53.154;18.136;2023-01-27T17:24:54;101931.84;;;-1.52;82.50
25869;BME280;13688;53.154;18.136;2023-01-27T17:30:25;101938.00;;;-1.53;81.80
25869;BME280;13688;53.154;18.136;2023-01-27T17:36:05;101940.64;;;-1.53;80.98
25869;BME280;13688;53.154;18.136;2023-01-27T17:41:35;101945.05;;;-1.57;80.28
25869;BME280;13688;53.154;18.136;2023-01-27T17:46:59;101949.45;;;-1.57;79.82
25869;BME280;13688;53.154;18.136;2023-01-27T17:52:26;101942.48;;;-1.63;79.73
25869;BME280;13688;53.154;18.136;2023-01-27T17:57:58;101956.55;;;-1.67;79.65
25869;BME280;13688;53.154;18.136;2023-01-27T18:03:25;101953.94;;;-1.68;79.55
25869;BME280;13688;53.154;18.136;2023-01-27T18:08:54;101978.59;;;-1.76;79.58
25869;BME280;13688;53.154;18.136;2023-01-27T18:14:23;101969.81;;;-1.78;79.60
25869;BME280;13688;53.154;18.136;2023-01-27T18:19:57;101973.36;;;-1.80;79.48
25869;BME280;13688;53.154;18.136;2023-01-27T18:25:21;101976.90;;;-1.83;79.29
25869;BME280;13688;53.154;18.136;2023-01-27T18:30:46;101982.17;;;-1.83;79.32
25869;BME280;13688;53.154;18.136;2023-01-27T18:36:20;101977.77;;;-1.82;79.21
25869;BME280;13688;53.154;18.136;2023-01-27T18:41:52;101994.48;;;-1.83;79.25
25869;BME280;13688;53.154;18.136;2023-01-27T18:47:31;102000.64;;;-1.87;79.00
25869;BME280;13688;53.154;18.136;2023-01-27T18:52:54;102001.55;;;-1.91;78.53
25869;BME280;13688;53.154;18.136;2023-01-27T18:58:17;102005.95;;;-1.95;77.98
25869;BME280;13688;53.154;18.136;2023-01-27T19:03:39;102005.07;;;-1.95;77.51
25869;BME280;13688;53.154;18.136;2023-01-27T19:09:04;102006.87;;;-2.00;77.48
25869;BME280;13688;53.154;18.136;2023-01-27T19:14:26;101997.24;;;-2.08;77.72
25869;BME280;13688;53.154;18.136;2023-01-27T19:19:50;102003.41;;;-2.13;77.99
25869;BME280;13688;53.154;18.136;2023-01-27T19:25:13;102009.61;;;-2.20;78.39
25869;BME280;13688;53.154;18.136;2023-01-27T19:30:37;102014.03;;;-2.28;78.85
25869;BME280;13688;53.154;18.136;2023-01-27T19:36:09;102007.92;;;-2.43;79.17
25869;BME280;13688;53.154;18.136;2023-01-27T19:41:40;102023.75;;;-2.52;79.45
25869;BME280;13688;53.154;18.136;2023-01-27T19:47:07;102022.93;;;-2.60;79.73
25869;BME280;13688;53.154;18.136;2023-01-27T19:52:28;102035.20;;;-2.64;80.00
25869;BME280;13688;53.154;18.136;2023-01-27T19:57:50;102030.84;;;-2.69;80.29
25869;BME280;13688;53.154;18.136;2023-01-27T20:03:13;102031.72;;;-2.75;80.46
25869;BME280;13688;53.154;18.136;2023-01-27T20:08:37;102036.11;;;-2.75;80.69
25869;BME280;13688;53.154;18.136;2023-01-27T20:14:01;102043.14;;;-2.90;80.81
25869;BME280;13688;53.154;18.136;2023-01-27T20:19:34;102035.27;;;-3.02;81.04
25869;BME280;13688;53.154;18.136;2023-01-27T20:24:58;102049.32;;;-3.07;81.35
25869;BME280;13688;53.154;18.136;2023-01-27T20:30:22;102058.09;;;-3.08;81.59
25869;BME280;13688;53.154;18.136;2023-01-27T20:35:47;102061.60;;;-3.08;81.70
25869;BME280;13688;53.154;18.136;2023-01-27T20:41:15;102061.59;;;-3.05;81.87
25869;BME280;13688;53.154;18.136;2023-01-27T20:46:38;102060.70;;;-3.13;81.83
25869;BME280;13688;53.154;18.136;2023-01-27T20:52:01;102063.34;;;-3.24;81.77
25869;BME280;13688;53.154;18.136;2023-01-27T20:57:24;102072.97;;;-3.32;81.87
25869;BME280;13688;53.154;18.136;2023-01-27T21:02:47;102070.33;;;-3.41;82.05
25869;BME280;13688;53.154;18.136;2023-01-27T21:08:11;102059.80;;;-3.50;82.20
25869;BME280;13688;53.154;18.136;2023-01-27T21:13:36;102061.52;;;-3.67;82.20
25869;BME280;13688;53.154;18.136;2023-01-27T21:18:59;102059.73;;;-3.82;82.33
25869;BME280;13688;53.154;18.136;2023-01-27T21:24:22;102049.20;;;-3.91;82.64
25869;BME280;13688;53.154;18.136;2023-01-27T21:29:45;102055.27;;;-4.08;82.93
25869;BME280;13688;53.154;18.136;2023-01-27T21:35:07;102065.69;;;-4.29;83.29
25869;BME280;13688;53.154;18.136;2023-01-27T21:40:30;102063.06;;;-4.32;83.86
25869;BME280;13688;53.154;18.136;2023-01-27T21:45:55;102051.69;;;-4.29;84.48
25869;BME280;13688;53.154;18.136;2023-01-27T21:51:18;102055.18;;;-4.32;84.95
25869;BME280;13688;53.154;18.136;2023-01-27T21:56:41;102049.84;;;-4.44;85.31
25869;BME280;13688;53.154;18.136;2023-01-27T22:02:03;102047.22;;;-4.47;85.73
25869;BME280;13688;53.154;18.136;2023-01-27T22:07:29;102048.09;;;-4.45;86.11
25869;BME280;13688;53.154;18.136;2023-01-27T22:12:56;102036.72;;;-4.47;86.33
25869;BME280;13688;53.154;18.136;2023-01-27T22:18:19;102043.72;;;-4.46;86.41
25869;BME280;13688;53.154;18.136;2023-01-27T22:23:42;102040.22;;;-4.47;86.43
25869;BME280;13688;53.154;18.136;2023-01-27T22:29:05;102039.34;;;-4.50;86.47
25869;BME280;13688;53.154;18.136;2023-01-27T22:34:28;102039.29;;;-4.58;86.52
25869;BME280;13688;53.154;18.136;2023-01-27T22:39:53;102039.23;;;-4.66;86.60
25869;BME280;13688;53.154;18.136;2023-01-27T22:45:16;102036.56;;;-4.73;86.76
25869;BME280;13688;53.154;18.136;2023-01-27T22:50:38;102037.41;;;-4.82;86.96
25869;BME280;13688;53.154;18.136;2023-01-27T22:56:02;102042.66;;;-4.82;87.28
25869;BME280;13688;53.154;18.136;2023-01-27T23:01:25;102037.37;;;-4.83;87.60
25869;BME280;13688;53.154;18.136;2023-01-27T23:06:47;102032.98;;;-4.89;87.86
25869;BME280;13688;53.154;18.136;2023-01-27T23:12:09;102038.30;;;-4.80;88.24
25869;BME280;13688;53.154;18.136;2023-01-27T23:17:32;102033.00;;;-4.84;88.40
25869;BME280;13688;53.154;18.136;2023-01-27T23:22:54;102039.17;;;-4.78;88.58
25869;BME280;13688;53.154;18.136;2023-01-27T23:28:18;102039.18;;;-4.75;88.67
25869;BME280;13688;53.154;18.136;2023-01-27T23:33:42;102040.06;;;-4.74;88.74
25869;BME280;13688;53.154;18.136;2023-01-27T23:39:05;102019.16;;;-4.61;88.78
25869;BME280;13688;53.154;18.136;2023-01-27T23:44:29;102013.09;;;-4.50;88.38
25869;BME280;13688;53.154;18.136;2023-01-27T23:49:51;102010.47;;;-4.44;87.59
25869;BME280;13688;53.154;18.136;2023-01-27T23:55:14;102015.76;;;-4.40;86.83
